createdAt,value
2023-02-14T00:01:20.665Z,4.96
2023-02-14T00:03:49.560Z,4.93
2023-02-14T00:06:16.758Z,4.91
2023-02-14T00:08:44.920Z,4.88
2023-02-14T00:11:14.031Z,4.84
2023-02-14T00:14:01.435Z,4.82
2023-02-14T00:16:28.556Z,4.80
2023-02-14T00:19:04.511Z,4.77
2023-02-14T00:21:38.068Z,4.75
2023-02-14T00:24:12.056Z,4.73
2023-02-14T00:26:39.560Z,4.71
2023-02-14T00:29:24.098Z,4.69
2023-02-14T00:31:51.866Z,4.68
2023-02-14T00:34:19.812Z,4.66
2023-02-14T00:36:47.371Z,4.62
2023-02-14T00:39:17.415Z,4.61
2023-02-14T00:41:45.027Z,4.60
2023-02-14T00:44:13.944Z,4.56
2023-02-14T00:46:41.874Z,4.54
2023-02-14T00:49:09.519Z,4.50
2023-02-14T00:51:38.952Z,4.46
2023-02-14T00:54:06.264Z,4.45
2023-02-14T00:56:33.361Z,4.42
2023-02-14T00:59:02.485Z,4.41
2023-02-14T01:01:29.797Z,4.39
2023-02-14T01:03:59.054Z,4.36
2023-02-14T01:06:26.335Z,4.35
2023-02-14T01:08:53.507Z,4.33
2023-02-14T01:11:23.088Z,4.33
2023-02-14T01:13:52.296Z,4.32
2023-02-14T01:16:22.019Z,4.31
2023-02-14T01:18:49.937Z,4.29
2023-02-14T01:21:27.360Z,4.26
2023-02-14T01:24:00.586Z,4.24
2023-02-14T01:26:28.680Z,4.21
2023-02-14T01:28:57.134Z,4.19
2023-02-14T01:31:30.085Z,4.17
2023-02-14T01:33:58.944Z,4.16
2023-02-14T01:36:39.858Z,4.14
2023-02-14T01:39:14.048Z,4.15
2023-02-14T01:41:43.920Z,4.10
2023-02-14T01:44:19.414Z,4.06
2023-02-14T01:46:46.971Z,4.05
2023-02-14T01:49:20.436Z,4.03
2023-02-14T01:52:03.034Z,3.98
2023-02-14T01:54:34.797Z,3.98
2023-02-14T01:57:07.224Z,3.98
2023-02-14T01:59:41.311Z,3.96
2023-02-14T02:02:08.823Z,3.94
2023-02-14T02:04:41.662Z,3.92
2023-02-14T02:07:19.575Z,3.89
2023-02-14T02:09:53.481Z,3.89
2023-02-14T02:12:24.466Z,3.88
2023-02-14T02:14:56.065Z,3.87
2023-02-14T02:17:45.084Z,3.84
2023-02-14T02:20:49.083Z,3.81
2023-02-14T02:23:59.860Z,3.80
2023-02-14T02:26:57.611Z,3.76
2023-02-14T02:29:51.643Z,3.75
2023-02-14T02:32:54.419Z,3.73
2023-02-14T02:35:34.514Z,3.72
2023-02-14T02:38:45.687Z,3.70
2023-02-14T02:41:22.088Z,3.69
2023-02-14T02:44:41.962Z,3.67
2023-02-14T02:47:26.705Z,3.64
2023-02-14T02:50:32.905Z,3.62
2023-02-14T02:53:18.828Z,3.62
2023-02-14T02:56:45.034Z,3.63
2023-02-14T02:59:33.431Z,3.62
2023-02-14T03:02:22.214Z,3.60
2023-02-14T03:05:03.381Z,3.59
2023-02-14T03:07:37.254Z,3.57
2023-02-14T03:10:08.396Z,3.57
2023-02-14T03:12:35.407Z,3.57
2023-02-14T03:15:34.976Z,3.59
2023-02-14T03:18:59.759Z,3.60
2023-02-14T03:21:45.337Z,3.62
2023-02-14T03:24:47.561Z,3.65
2023-02-14T03:27:39.388Z,3.68
2023-02-14T03:30:25.107Z,3.76
2023-02-14T03:33:08.010Z,3.79
2023-02-14T03:36:06.138Z,3.81
2023-02-14T03:39:03.046Z,3.82
2023-02-14T03:41:37.798Z,3.85
2023-02-14T03:44:11.378Z,3.85
2023-02-14T03:46:50.426Z,3.84
2023-02-14T03:49:23.905Z,3.85
2023-02-14T03:51:55.066Z,3.85
2023-02-14T03:54:26.114Z,3.84
2023-02-14T03:57:05.369Z,3.83
2023-02-14T03:59:32.342Z,3.82
2023-02-14T04:02:36.038Z,3.79
2023-02-14T04:05:12.559Z,3.76
2023-02-14T04:08:05.623Z,3.72
2023-02-14T04:10:32.860Z,3.70
2023-02-14T04:12:59.956Z,3.69
2023-02-14T04:15:27.067Z,3.67
2023-02-14T04:18:12.754Z,3.65
2023-02-14T04:20:39.827Z,3.61
2023-02-14T04:23:07.051Z,3.57
2023-02-14T04:25:34.042Z,3.56
2023-02-14T04:28:01.091Z,3.53
2023-02-14T04:30:28.203Z,3.50
2023-02-14T04:32:55.276Z,3.48
2023-02-14T04:35:22.262Z,3.47
2023-02-14T04:37:52.111Z,3.46
2023-02-14T04:40:19.424Z,3.47
2023-02-14T04:42:46.995Z,3.46
2023-02-14T04:45:15.445Z,3.44
2023-02-14T04:47:42.732Z,3.43
2023-02-14T04:50:10.735Z,3.43
2023-02-14T04:52:38.269Z,3.43
2023-02-14T04:55:06.272Z,3.42
2023-02-14T04:57:33.561Z,3.42
2023-02-14T05:00:01.863Z,3.39
2023-02-14T05:02:29.025Z,3.35
2023-02-14T05:04:56.096Z,3.31
2023-02-14T05:07:23.055Z,3.28
2023-02-14T05:09:50.124Z,3.24
2023-02-14T05:12:17.245Z,3.20
2023-02-14T05:14:44.293Z,3.18
2023-02-14T05:17:11.651Z,3.17
2023-02-14T05:19:38.638Z,3.13
2023-02-14T05:22:05.672Z,3.07
2023-02-14T05:24:32.697Z,3.01
2023-02-14T05:26:59.867Z,2.99
2023-02-14T05:29:27.026Z,2.98
2023-02-14T05:31:54.717Z,2.98
2023-02-14T05:34:22.191Z,2.98
2023-02-14T05:36:49.209Z,2.96
2023-02-14T05:39:16.203Z,2.96
2023-02-14T05:41:43.264Z,2.95
2023-02-14T05:44:10.337Z,2.94
2023-02-14T05:46:37.863Z,2.93
2023-02-14T05:49:05.085Z,2.93
2023-02-14T05:51:32.344Z,2.92
2023-02-14T05:54:01.215Z,2.90
2023-02-14T05:56:28.538Z,2.86
2023-02-14T05:58:56.007Z,2.84
2023-02-14T06:01:23.447Z,2.82
2023-02-14T06:03:53.562Z,2.79
2023-02-14T06:06:20.834Z,2.78
2023-02-14T06:08:49.285Z,2.76
2023-02-14T06:11:16.337Z,2.74
2023-02-14T06:13:43.708Z,2.72
2023-02-14T06:16:11.535Z,2.70
2023-02-14T06:18:39.215Z,2.70
2023-02-14T06:21:07.554Z,2.68
2023-02-14T06:23:34.738Z,2.66
2023-02-14T06:26:01.982Z,2.65
2023-02-14T06:28:29.106Z,2.64
2023-02-14T06:30:56.539Z,2.60
2023-02-14T06:33:23.972Z,2.58
2023-02-14T06:35:54.551Z,2.56
2023-02-14T06:38:21.921Z,2.57
2023-02-14T06:40:49.026Z,2.57
2023-02-14T06:43:16.220Z,2.57
2023-02-14T06:45:43.911Z,2.57
2023-02-14T06:48:11.250Z,2.56
2023-02-14T06:50:38.594Z,2.55
2023-02-14T06:53:06.299Z,2.54
2023-02-14T06:55:33.418Z,2.55
2023-02-14T06:58:00.899Z,2.55
2023-02-14T07:00:28.343Z,2.53
2023-02-14T07:02:58.627Z,2.52
2023-02-14T07:05:25.826Z,2.54
2023-02-14T07:07:53.078Z,2.54
2023-02-14T07:10:20.511Z,2.57
2023-02-14T07:12:47.772Z,2.59
2023-02-14T07:15:15.158Z,2.61
2023-02-14T07:17:42.855Z,2.62
2023-02-14T07:20:14.269Z,2.62
2023-02-14T07:22:41.354Z,2.63
2023-02-14T07:25:08.851Z,2.62
2023-02-14T07:27:36.186Z,2.64
2023-02-14T07:30:05.812Z,2.65
2023-02-14T07:32:33.028Z,2.68
2023-02-14T07:35:00.414Z,2.71
2023-02-14T07:37:28.071Z,2.72
2023-02-14T07:39:55.533Z,2.76
2023-02-14T07:42:22.906Z,2.79
2023-02-14T07:44:49.964Z,2.83
2023-02-14T07:47:18.699Z,2.84
2023-02-14T07:49:45.883Z,2.88
2023-02-14T07:52:12.982Z,2.93
2023-02-14T07:54:42.133Z,2.97
2023-02-14T07:57:09.308Z,3.03
2023-02-14T07:59:36.582Z,3.07
2023-02-14T08:02:04.008Z,3.12
2023-02-14T08:04:33.747Z,3.16
2023-02-14T08:07:01.156Z,3.14
2023-02-14T08:09:28.183Z,3.21
2023-02-14T08:12:16.600Z,3.28
2023-02-14T08:14:44.929Z,3.28
2023-02-14T08:17:13.485Z,3.32
2023-02-14T08:19:41.421Z,3.34
2023-02-14T08:22:08.837Z,3.45
2023-02-14T08:24:35.998Z,3.48
2023-02-14T08:27:03.385Z,3.58
2023-02-14T08:29:30.746Z,3.63
2023-02-14T08:32:00.473Z,3.70
2023-02-14T08:34:27.666Z,3.76
2023-02-14T08:36:55.163Z,3.82
2023-02-14T08:39:22.488Z,3.89
2023-02-14T08:41:49.588Z,3.94
2023-02-14T08:44:16.692Z,3.95
2023-02-14T08:46:44.070Z,4.09
2023-02-14T08:49:13.023Z,4.20
2023-02-14T08:51:40.464Z,4.25
2023-02-14T08:54:07.931Z,4.35
2023-02-14T08:56:35.400Z,4.39
2023-02-14T08:59:02.842Z,4.50
2023-02-14T09:01:30.629Z,4.52
2023-02-14T09:03:58.489Z,4.62
2023-02-14T09:06:26.298Z,4.69
2023-02-14T09:08:57.534Z,4.77
2023-02-14T09:11:26.771Z,4.83
2023-02-14T09:13:55.012Z,4.89
2023-02-14T09:16:24.117Z,5.01
2023-02-14T09:18:53.309Z,5.14
2023-02-14T09:21:26.560Z,5.19
2023-02-14T09:23:54.818Z,5.31
2023-02-14T09:26:21.992Z,5.42
2023-02-14T09:28:49.011Z,5.53
2023-02-14T09:31:20.040Z,5.64
2023-02-14T09:34:08.024Z,5.66
2023-02-14T09:36:35.077Z,5.81
2023-02-14T09:39:02.417Z,5.91
2023-02-14T09:41:29.752Z,6.04
2023-02-14T09:44:17.382Z,6.07
2023-02-14T09:46:52.606Z,6.21
2023-02-14T09:49:34.739Z,6.35
2023-02-14T09:52:04.964Z,6.43
2023-02-14T09:54:35.323Z,6.57
2023-02-14T09:57:28.951Z,6.62
2023-02-14T10:00:25.309Z,6.72
2023-02-14T10:03:08.332Z,6.79
2023-02-14T10:05:57.425Z,6.97
2023-02-14T10:09:17.613Z,7.08
2023-02-14T10:11:46.939Z,7.18
2023-02-14T10:14:26.345Z,7.28
2023-02-14T10:17:22.654Z,7.40
2023-02-14T10:20:00.030Z,7.50
2023-02-14T10:23:02.330Z,7.59
2023-02-14T10:25:42.162Z,7.71
2023-02-14T10:28:16.787Z,7.81
2023-02-14T10:31:02.357Z,7.91
2023-02-14T10:33:33.887Z,8.04
2023-02-14T10:36:10.249Z,8.11
2023-02-14T10:39:04.051Z,8.30
2023-02-14T10:42:17.682Z,8.40
2023-02-14T10:45:00.260Z,8.48
2023-02-14T10:47:45.169Z,8.56
2023-02-14T10:50:38.895Z,8.66
2023-02-14T10:53:29.639Z,8.78
2023-02-14T10:59:26.679Z,8.99
2023-02-14T11:01:55.985Z,9.06
2023-02-14T11:04:25.403Z,9.17
2023-02-14T11:06:53.045Z,9.25
2023-02-14T11:09:21.004Z,9.37
2023-02-14T11:11:54.003Z,9.47
2023-02-14T11:14:32.763Z,9.58
2023-02-14T11:17:27.789Z,9.69
2023-02-14T11:20:27.923Z,9.78
2023-02-14T11:22:55.174Z,9.92
2023-02-14T11:25:29.174Z,10.00
2023-02-14T11:28:06.231Z,10.08
2023-02-14T11:30:45.673Z,10.18
2023-02-14T11:33:30.521Z,10.26
2023-02-14T11:35:58.336Z,10.34
2023-02-14T11:38:38.394Z,10.44
2023-02-14T11:41:10.751Z,10.53
2023-02-14T11:43:49.269Z,10.59
2023-02-14T11:46:28.253Z,10.65
2023-02-14T11:49:09.908Z,10.78
2023-02-14T11:51:43.490Z,10.76
2023-02-14T11:54:30.959Z,10.90
2023-02-14T11:57:12.154Z,11.04
2023-02-14T11:59:48.255Z,11.16
2023-02-14T12:02:39.744Z,11.24
2023-02-14T12:05:45.344Z,11.30
2023-02-14T12:08:12.604Z,11.39
2023-02-14T12:10:43.790Z,11.50
2023-02-14T12:13:10.780Z,11.63
2023-02-14T12:15:43.578Z,11.66
2023-02-14T12:18:35.059Z,11.73
2023-02-14T12:21:54.289Z,11.75
2023-02-14T12:24:36.768Z,11.87
2023-02-14T12:27:20.149Z,11.93
2023-02-14T12:30:18.369Z,12.03
2023-02-14T12:32:53.957Z,12.16
2023-02-14T12:36:02.899Z,12.25
2023-02-14T12:38:48.809Z,12.31
2023-02-14T12:41:40.624Z,12.38
2023-02-14T12:45:00.857Z,12.43
2023-02-14T12:47:55.495Z,12.54
2023-02-14T12:50:55.499Z,12.63
2023-02-14T12:53:42.514Z,12.72
2023-02-14T12:56:18.728Z,12.74
2023-02-14T12:59:12.858Z,12.77
2023-02-14T13:01:43.170Z,12.84
2023-02-14T13:04:53.271Z,12.95
2023-02-14T13:07:55.800Z,13.06
2023-02-14T13:11:04.787Z,13.02
2023-02-14T13:13:43.987Z,13.09
2023-02-14T13:16:48.329Z,13.15
2023-02-14T13:19:47.371Z,13.21
2023-02-14T13:22:20.383Z,13.23
2023-02-14T13:24:57.847Z,13.30
2023-02-14T13:27:30.214Z,13.35
2023-02-14T13:30:27.828Z,13.45
2023-02-14T13:33:01.271Z,13.42
2023-02-14T13:35:30.253Z,13.50
2023-02-14T13:38:13.225Z,13.52
2023-02-14T13:40:41.559Z,13.50
2023-02-14T13:43:08.867Z,13.61
2023-02-14T13:45:37.522Z,13.64
2023-02-14T13:48:18.618Z,13.66
2023-02-14T13:51:10.351Z,13.76
2023-02-14T13:53:51.506Z,13.82
2023-02-14T13:56:18.422Z,13.76
2023-02-14T13:58:52.365Z,13.85
2023-02-14T14:01:50.288Z,13.88
2023-02-14T14:04:26.816Z,13.94
2023-02-14T14:07:00.781Z,13.96
2023-02-14T14:09:43.766Z,14.07
2023-02-14T14:12:29.264Z,14.14
2023-02-14T14:15:08.288Z,14.19
2023-02-14T14:17:46.072Z,14.21
2023-02-14T14:20:16.268Z,14.25
2023-02-14T14:22:49.849Z,14.32
2023-02-14T14:25:39.140Z,14.36
2023-02-14T14:28:20.411Z,14.41
2023-02-14T14:30:48.207Z,14.44
2023-02-14T14:33:34.293Z,14.42
2023-02-14T14:36:07.945Z,14.40
2023-02-14T14:38:49.344Z,14.48
2023-02-14T14:41:17.406Z,14.46
2023-02-14T14:43:44.821Z,14.45
2023-02-14T14:46:14.629Z,14.41
2023-02-14T14:48:51.819Z,14.39
2023-02-14T14:51:36.041Z,14.35
2023-02-14T14:54:15.031Z,14.29
2023-02-14T14:56:56.805Z,14.17
2023-02-14T14:59:35.139Z,14.19
2023-02-14T15:02:04.344Z,14.15
2023-02-14T15:04:35.336Z,14.11
2023-02-14T15:07:33.250Z,14.06
2023-02-14T15:10:01.448Z,14.02
2023-02-14T15:13:02.415Z,13.98
2023-02-14T15:15:30.718Z,13.94
2023-02-14T15:17:58.017Z,13.93
2023-02-14T15:20:25.730Z,13.93
2023-02-14T15:22:53.979Z,13.88
2023-02-14T15:25:24.995Z,13.85
2023-02-14T15:27:52.590Z,13.83
2023-02-14T15:30:19.632Z,13.81
2023-02-14T15:32:49.516Z,13.70
2023-02-14T15:35:23.336Z,13.74
2023-02-14T15:37:51.001Z,13.74
2023-02-14T15:40:28.968Z,13.73
2023-02-14T15:42:57.521Z,13.70
2023-02-14T15:45:28.070Z,13.68
2023-02-14T15:48:03.668Z,13.64
2023-02-14T15:50:55.242Z,13.62
2023-02-14T15:53:34.719Z,13.57
2023-02-14T15:56:09.714Z,13.55
2023-02-14T15:58:38.986Z,13.51
2023-02-14T16:01:07.786Z,13.48
2023-02-14T16:03:40.504Z,13.46
2023-02-14T16:06:29.490Z,13.44
2023-02-14T16:08:59.389Z,13.41
2023-02-14T16:11:37.151Z,13.40
2023-02-14T16:14:32.363Z,13.33
2023-02-14T16:17:12.718Z,13.28
2023-02-14T16:19:45.858Z,13.24
2023-02-14T16:22:31.955Z,13.19
2023-02-14T16:24:59.899Z,13.16
2023-02-14T16:27:27.560Z,13.10
2023-02-14T16:29:54.839Z,13.03
2023-02-14T16:32:24.503Z,12.99
2023-02-14T16:34:51.926Z,12.90
2023-02-14T16:37:33.621Z,12.78
2023-02-14T16:40:02.402Z,12.67
2023-02-14T16:42:30.134Z,12.58
2023-02-14T16:44:58.338Z,12.50
2023-02-14T16:47:27.886Z,12.39
2023-02-14T16:49:55.289Z,12.31
2023-02-14T16:52:26.778Z,12.23
2023-02-14T16:54:54.055Z,12.13
2023-02-14T16:57:28.213Z,12.08
2023-02-14T16:59:57.060Z,11.96
2023-02-14T17:02:28.258Z,11.89
2023-02-14T17:04:56.032Z,11.81
2023-02-14T17:07:23.572Z,11.75
2023-02-14T17:09:57.116Z,11.68
2023-02-14T17:12:30.913Z,11.61
2023-02-14T17:15:06.050Z,11.54
2023-02-14T17:17:35.877Z,11.45
2023-02-14T17:20:06.301Z,11.38
2023-02-14T17:22:34.517Z,11.30
2023-02-14T17:25:01.521Z,11.25
2023-02-14T17:27:28.665Z,11.17
2023-02-14T17:29:55.694Z,11.10
2023-02-14T17:32:22.853Z,11.03
2023-02-14T17:34:49.872Z,10.97
2023-02-14T17:37:19.042Z,10.91
2023-02-14T17:39:46.187Z,10.86
2023-02-14T17:42:13.267Z,10.80
2023-02-14T17:44:40.441Z,10.74
2023-02-14T17:47:07.790Z,10.68
2023-02-14T17:49:35.027Z,10.63
2023-02-14T17:52:02.088Z,10.58
2023-02-14T17:54:29.102Z,10.52
2023-02-14T17:56:56.066Z,10.46
2023-02-14T17:59:24.352Z,10.41
2023-02-14T18:01:51.501Z,10.36
2023-02-14T18:04:19.072Z,10.33
2023-02-14T18:06:46.106Z,10.27
2023-02-14T18:09:14.206Z,10.22
2023-02-14T18:11:42.334Z,10.17
2023-02-14T18:14:09.728Z,10.12
2023-02-14T18:16:39.118Z,10.05
2023-02-14T18:19:08.614Z,10.00
2023-02-14T18:21:40.033Z,9.96
2023-02-14T18:24:08.430Z,9.90
2023-02-14T18:26:41.051Z,9.87
2023-02-14T18:29:08.916Z,9.83
2023-02-14T18:31:38.730Z,9.79
2023-02-14T18:34:06.219Z,9.74
2023-02-14T18:36:36.695Z,9.71
2023-02-14T18:39:06.093Z,9.67
2023-02-14T18:41:33.281Z,9.63
2023-02-14T18:44:04.209Z,9.59
2023-02-14T18:46:35.269Z,9.53
2023-02-14T18:49:06.066Z,9.48
2023-02-14T18:51:37.504Z,9.45
2023-02-14T18:54:05.277Z,9.41
2023-02-14T18:56:35.993Z,9.37
2023-02-14T18:59:07.651Z,9.32
2023-02-14T19:01:39.604Z,9.28
2023-02-14T19:04:12.100Z,9.26
2023-02-14T19:06:41.740Z,9.22
2023-02-14T19:09:16.226Z,9.20
2023-02-14T19:11:43.999Z,9.17
2023-02-14T19:14:12.957Z,9.13
2023-02-14T19:16:51.256Z,9.10
2023-02-14T19:19:18.593Z,9.05
2023-02-14T19:21:48.607Z,9.01
2023-02-14T19:24:17.408Z,8.97
2023-02-14T19:26:44.764Z,8.95
2023-02-14T19:29:17.937Z,8.91
2023-02-14T19:31:48.644Z,8.86
2023-02-14T19:34:17.215Z,8.81
2023-02-14T19:36:44.512Z,8.78
2023-02-14T19:39:12.674Z,8.74
2023-02-14T19:41:40.268Z,8.72
2023-02-14T19:44:10.059Z,8.68
2023-02-14T19:46:38.347Z,8.63
2023-02-14T19:49:05.854Z,8.60
2023-02-14T19:51:36.467Z,8.56
2023-02-14T19:54:07.183Z,8.54
2023-02-14T19:56:38.882Z,8.50
2023-02-14T19:59:10.034Z,8.47
2023-02-14T20:01:46.156Z,8.43
2023-02-14T20:04:18.218Z,8.39
2023-02-14T20:06:45.997Z,8.34
2023-02-14T20:09:14.172Z,8.28
2023-02-14T20:11:50.972Z,8.24
2023-02-14T20:14:26.500Z,8.20
2023-02-14T20:16:56.402Z,8.16
2023-02-14T20:19:27.901Z,8.14
2023-02-14T20:21:55.477Z,8.09
2023-02-14T20:24:27.400Z,8.06
2023-02-14T20:26:55.753Z,8.01
2023-02-14T20:29:24.773Z,7.99
2023-02-14T20:31:58.150Z,7.95
2023-02-14T20:34:26.658Z,7.90
2023-02-14T20:36:55.317Z,7.87
2023-02-14T20:39:28.538Z,7.83
2023-02-14T20:41:55.646Z,7.79
2023-02-14T20:44:22.970Z,7.75
2023-02-14T20:46:53.167Z,7.71
2023-02-14T20:49:22.166Z,7.65
2023-02-14T20:51:50.934Z,7.61
2023-02-14T20:54:24.026Z,7.57
2023-02-14T20:56:52.190Z,7.53
2023-02-14T20:59:26.933Z,7.47
2023-02-14T21:01:58.824Z,7.44
2023-02-14T21:04:26.897Z,7.42
2023-02-14T21:06:54.601Z,7.39
2023-02-14T21:09:21.708Z,7.38
2023-02-14T21:11:52.217Z,7.36
2023-02-14T21:14:20.883Z,7.36
2023-02-14T21:16:48.202Z,7.33
2023-02-14T21:19:15.401Z,7.32
2023-02-14T21:21:43.180Z,7.30
2023-02-14T21:24:16.840Z,7.28
2023-02-14T21:26:44.876Z,7.26
2023-02-14T21:29:12.101Z,7.22
2023-02-14T21:31:39.642Z,7.19
2023-02-14T21:34:06.826Z,7.15
2023-02-14T21:36:37.577Z,7.12
2023-02-14T21:39:06.632Z,7.08
2023-02-14T21:41:37.679Z,7.06
2023-02-14T21:44:06.829Z,7.02
2023-02-14T21:46:39.494Z,6.98
2023-02-14T21:49:25.767Z,6.96
2023-02-14T21:51:53.020Z,6.91
2023-02-14T21:54:27.072Z,6.89
2023-02-14T21:56:54.737Z,6.88
2023-02-14T21:59:22.109Z,6.87
2023-02-14T22:01:49.093Z,6.86
2023-02-14T22:04:16.298Z,6.82
2023-02-14T22:06:43.640Z,6.80
2023-02-14T22:09:13.887Z,6.78
2023-02-14T22:11:41.192Z,6.76
2023-02-14T22:14:08.529Z,6.75
2023-02-14T22:16:36.933Z,6.73
2023-02-14T22:19:05.714Z,6.70
2023-02-14T22:21:33.593Z,6.67
2023-02-14T22:24:01.341Z,6.65
2023-02-14T22:26:39.534Z,6.63
2023-02-14T22:29:09.964Z,6.62
2023-02-14T22:31:43.243Z,6.60
2023-02-14T22:34:14.087Z,6.58
2023-02-14T22:36:41.447Z,6.54
2023-02-14T22:39:09.513Z,6.50
2023-02-14T22:41:37.997Z,6.47
2023-02-14T22:44:06.187Z,6.44
2023-02-14T22:46:36.806Z,6.39
2023-02-14T22:49:05.502Z,6.36
2023-02-14T22:51:40.321Z,6.33
2023-02-14T22:54:15.005Z,6.30
2023-02-14T22:56:45.314Z,6.26
2023-02-14T22:59:28.332Z,6.23
2023-02-14T23:01:55.435Z,6.22
2023-02-14T23:04:24.992Z,6.21
2023-02-14T23:06:53.567Z,6.21
2023-02-14T23:09:20.694Z,6.19
2023-02-14T23:11:48.411Z,6.18
2023-02-14T23:14:35.703Z,6.16
2023-02-14T23:17:16.281Z,6.15
2023-02-14T23:20:03.536Z,6.13
2023-02-14T23:22:38.665Z,6.06
2023-02-14T23:25:10.698Z,6.05
2023-02-14T23:27:41.662Z,6.01
2023-02-14T23:30:15.335Z,5.99
2023-02-14T23:32:42.835Z,5.98
2023-02-14T23:35:10.390Z,5.96
2023-02-14T23:37:38.447Z,5.94
2023-02-14T23:40:07.013Z,5.92
2023-02-14T23:42:34.042Z,5.91
2023-02-14T23:45:21.208Z,5.89
2023-02-14T23:47:49.349Z,5.83
2023-02-14T23:50:16.889Z,5.81
2023-02-14T23:52:44.708Z,5.80
2023-02-14T23:55:12.902Z,5.78
2023-02-14T23:57:40.089Z,5.74
